Time;durP1;ratioP1;P1;durP2;ratioP2;P2;SDS_P1;SDS_P2;PMS_P1;PMS_P2;Temp;Humidity;BMP_temperature;BMP_pressure;BME280_temperature;BME280_humidity;BME280_pressure;Samples;Min_cycle;Max_cycle;Signal;HPM_P1;HPM_P2
2022/08/19 00:00:09;;;;;;;;;;;20.00;99.90;20.00;99379.00;;;;345620;28;92239;-88
2022/08/19 00:00:21;;;;;;;;;;;19.90;99.90;20.00;99370.00;;;;347554;28;83218;-89
2022/08/19 00:00:32;;;;;;;;;;;19.90;99.90;20.00;99368.00;;;;347046;28;88537;-89
2022/08/19 00:00:44;;;;;;;;;;;19.90;99.90;20.00;99376.00;;;;347422;28;83334;-88
2022/08/19 00:00:56;;;;;;;;;;;20.00;99.90;20.00;99376.00;;;;348407;27;91858;-89
2022/08/19 00:01:08;;;;;;;;;;;20.00;99.90;20.00;99368.00;;;;347384;28;83459;-89
2022/08/19 00:01:20;;;;;;;;;;;20.00;99.90;19.90;99374.00;;;;347061;28;90157;-89
2022/08/19 00:01:41;;;;;;;;;;;20.00;99.90;19.90;99368.00;;;;346082;28;82490;-89
2022/08/19 00:01:54;;;;;;;;;;;20.00;99.90;19.90;99373.00;;;;345594;28;91815;-89
2022/08/19 00:02:06;;;;;;;;;;;20.00;99.90;19.90;99371.00;;;;345987;28;83475;-89
2022/08/19 00:02:18;;;;;;;;;;;19.90;99.90;19.90;99375.00;;;;346875;28;90858;-89
2022/08/19 00:02:29;;;;;;;;;;;20.00;99.90;19.90;99368.00;;;;347417;28;82393;-88
2022/08/19 00:02:42;;;;;;;;;;;19.90;99.90;19.80;99375.00;;;;345704;28;89650;-89
2022/08/19 00:03:01;;;;;;;;;;;19.90;99.90;19.90;99377.00;;;;348720;27;83456;-89
2022/08/19 00:03:12;;;;;;;;;;;19.90;99.90;19.90;99369.00;;;;348343;27;91721;-88
2022/08/19 00:03:24;;;;;;;;;;;19.90;99.90;19.90;99370.00;;;;347459;28;82423;-89
2022/08/19 00:03:36;;;;;;;;;;;19.90;99.90;19.90;99372.00;;;;345668;28;91470;-89
2022/08/19 00:03:48;;;;;;;;;;;19.90;99.90;19.90;99371.00;;;;347381;28;83416;-89
2022/08/19 00:04:01;;;;;;;;;;;19.90;99.90;19.80;99370.00;;;;344244;28;90477;-89
2022/08/19 00:04:14;;;;;;;;;;;19.90;99.90;19.90;99373.00;;;;346044;28;83395;-89
2022/08/19 00:04:29;;;;;;;;;;;19.90;99.90;19.90;99370.00;;;;346979;28;91367;-89
2022/08/19 00:04:41;;;;;;;;;;;19.90;99.90;20.00;99376.00;;;;347437;28;82602;-89
2022/08/19 00:04:52;;;;;;;;;;;19.90;99.90;20.00;99371.00;;;;347083;28;89741;-89
2022/08/19 00:05:05;;;;;;;;;;;19.90;99.90;20.00;99369.00;;;;345955;28;82456;-89
2022/08/19 00:05:17;;;;;;;;;;;19.90;99.90;20.00;99371.00;;;;346907;28;92211;-89
2022/08/19 00:05:29;;;;;;;;;;;20.00;99.90;20.10;99366.00;;;;347453;28;83468;-89
2022/08/19 00:05:42;;;;;;;;;;;19.90;99.90;20.10;99372.00;;;;345641;28;91230;-89
2022/08/19 00:05:54;;;;;;;;;;;19.90;99.90;20.00;99366.00;;;;347206;28;83335;-89
2022/08/19 00:06:05;;;;;;;;;;;19.90;99.90;20.10;99365.00;;;;346921;28;91372;-89
2022/08/19 00:06:17;;;;;;;;;;;19.90;99.90;20.10;99383.00;;;;344653;28;83286;-89
2022/08/19 00:06:31;;;;;;;;;;;19.90;99.90;20.10;99372.00;;;;346892;28;91988;-89
2022/08/19 00:06:43;;;;;;;;;;;20.00;99.90;20.10;99369.00;;;;347453;28;82398;-89
2022/08/19 00:06:55;;;;;;;;;;;20.00;99.90;20.10;99364.00;;;;344311;28;90538;-89
2022/08/19 00:07:07;;;;;;;;;;;20.00;99.90;20.10;99371.00;;;;344675;28;83312;-89
2022/08/19 00:07:19;;;;;;;;;;;20.00;99.90;19.90;99368.00;;;;346942;28;92071;-88
2022/08/19 00:07:31;;;;;;;;;;;20.00;99.90;20.00;99368.00;;;;348871;27;82398;-88
2022/08/19 00:07:43;;;;;;;;;;;20.00;99.90;20.00;99361.00;;;;346996;28;90764;-89
2022/08/19 00:07:54;;;;;;;;;;;20.00;99.90;20.10;99366.00;;;;345957;28;83920;-88
2022/08/19 00:08:06;;;;;;;;;;;20.00;99.90;20.10;99365.00;;;;345519;28;91677;-88
2022/08/19 00:08:18;;;;;;;;;;;20.00;99.90;20.10;99361.00;;;;345999;28;83350;-89
2022/08/19 00:08:30;;;;;;;;;;;20.00;99.90;20.10;99361.00;;;;345513;28;91279;-88
2022/08/19 00:08:42;;;;;;;;;;;20.00;99.90;20.20;99360.00;;;;347436;28;83284;-89
2022/08/19 00:08:55;;;;;;;;;;;20.00;99.90;20.10;99359.00;;;;345613;28;90932;-89
2022/08/19 00:09:08;;;;;;;;;;;20.00;99.90;20.10;99362.00;;;;344564;28;82549;-89
2022/08/19 00:09:20;;;;;;;;;;;20.00;99.90;20.20;99358.00;;;;344155;28;90832;-89
2022/08/19 00:09:32;;;;;;;;;;;20.00;99.90;20.10;99356.00;;;;344726;28;83303;-89
2022/08/19 00:09:44;;;;;;;;;;;20.00;99.90;20.10;99360.00;;;;345568;28;91428;-88
2022/08/19 00:09:56;;;;;;;;;;;20.00;99.90;20.10;99357.00;;;;347481;28;82467;-89
2022/08/19 00:10:09;;;;;;;;;;;20.00;99.90;20.10;99364.00;;;;345640;28;90833;-89
2022/08/19 00:10:21;;;;;;;;;;;20.10;99.90;20.10;99356.00;;;;345819;28;82361;-89
2022/08/19 00:10:33;;;;;;;;;;;20.10;99.90;20.10;99365.00;;;;345565;28;90211;-89
2022/08/19 00:10:46;;;;;;;;;;;20.10;99.90;20.00;99360.00;;;;347382;28;83241;-88
2022/08/19 00:10:58;;;;;;;;;;;20.10;99.90;20.00;99363.00;;;;347040;28;90303;-89
2022/08/19 00:11:10;;;;;;;;;;;20.00;99.90;20.00;99358.00;;;;347347;28;82544;-89
2022/08/19 00:11:29;;;;;;;;;;;20.00;99.90;20.00;99355.00;;;;348365;27;92501;-89
2022/08/19 00:11:41;;;;;;;;;;;20.10;99.90;20.00;99364.00;;;;348864;27;82346;-89
2022/08/19 00:11:55;;;;;;;;;;;20.00;99.90;20.00;99355.00;;;;347078;28;89188;-89
2022/08/19 00:12:07;;;;;;;;;;;20.10;99.90;20.00;99364.00;;;;346057;28;83284;-89
2022/08/19 00:12:19;;;;;;;;;;;20.00;99.90;20.00;99360.00;;;;347042;28;88824;-89
2022/08/19 00:12:31;;;;;;;;;;;20.10;99.90;20.00;99362.00;;;;347336;28;83446;-89
2022/08/19 00:12:42;;;;;;;;;;;20.00;99.90;19.90;99363.00;;;;347008;28;90649;-89
2022/08/19 00:12:57;;;;;;;;;;;20.00;99.90;20.00;99354.00;;;;347440;28;83275;-89
2022/08/19 00:13:10;;;;;;;;;;;20.00;99.90;20.00;99364.00;;;;348324;27;92140;-88
2022/08/19 00:13:22;;;;;;;;;;;20.00;99.90;20.00;99363.00;;;;344667;28;83356;-89
2022/08/19 00:13:33;;;;;;;;;;;20.00;99.90;20.00;99356.00;;;;346954;28;92702;-89
2022/08/19 00:13:48;;;;;;;;;;;20.00;99.90;20.00;99361.00;;;;347291;28;83196;-89
2022/08/19 00:13:59;;;;;;;;;;;20.00;99.90;19.90;99359.00;;;;344324;28;90769;-89
2022/08/19 00:14:12;;;;;;;;;;;20.00;99.90;19.90;99351.00;;;;346128;28;82326;-88
2022/08/19 00:14:24;;;;;;;;;;;20.00;99.90;19.90;99345.00;;;;345600;28;89788;-89
2022/08/19 00:14:38;;;;;;;;;;;20.00;99.90;19.90;99361.00;;;;346073;28;83361;-89
2022/08/19 00:14:49;;;;;;;;;;;20.00;99.90;19.90;99357.00;;;;347021;28;91314;-89
2022/08/19 00:15:01;;;;;;;;;;;20.00;99.90;19.90;99356.00;;;;348810;27;83254;-88
2022/08/19 00:15:15;;;;;;;;;;;20.00;99.90;19.90;99354.00;;;;347019;28;90495;-89
2022/08/19 00:15:27;;;;;;;;;;;20.00;99.90;19.90;99356.00;;;;348875;27;82487;-89
2022/08/19 00:15:39;;;;;;;;;;;20.00;99.90;19.90;99356.00;;;;347010;28;90827;-88
2022/08/19 00:15:51;;;;;;;;;;;20.00;99.90;19.90;99354.00;;;;347332;28;83370;-88
2022/08/19 00:16:03;;;;;;;;;;;20.00;99.90;19.90;99356.00;;;;346895;28;91910;-88
2022/08/19 00:16:18;;;;;;;;;;;20.00;99.90;19.90;99355.00;;;;348772;27;83216;-89
2022/08/19 00:16:37;;;;;;;;;;;20.00;99.90;19.90;99360.00;;;;345562;28;91369;-89
2022/08/19 00:16:51;;;;;;;;;;;19.90;99.90;19.90;99355.00;;;;344665;28;83340;-89
2022/08/19 00:17:03;;;;;;;;;;;19.90;99.90;19.90;99353.00;;;;344149;28;92427;-89
2022/08/19 00:17:15;;;;;;;;;;;19.90;99.90;19.90;99355.00;;;;344677;28;82500;-90
2022/08/19 00:17:27;;;;;;;;;;;19.90;99.90;19.90;99361.00;;;;346842;28;91942;-88
2022/08/19 00:17:39;;;;;;;;;;;20.00;99.90;19.90;99350.00;;;;348874;27;83278;-87
2022/08/19 00:17:52;;;;;;;;;;;20.00;99.90;19.90;99352.00;;;;345534;28;92328;-89
2022/08/19 00:18:04;;;;;;;;;;;19.90;99.90;19.90;99350.00;;;;346085;28;82396;-88
2022/08/19 00:18:16;;;;;;;;;;;19.90;99.90;19.90;99351.00;;;;348436;27;90152;-89
2022/08/19 00:18:27;;;;;;;;;;;19.90;99.90;19.80;99352.00;;;;347371;28;83213;-89
2022/08/19 00:18:39;;;;;;;;;;;19.90;99.90;19.90;99354.00;;;;346907;28;93412;-88
2022/08/19 00:18:51;;;;;;;;;;;19.90;99.90;19.90;99354.00;;;;347526;28;82372;-89
2022/08/19 00:19:03;;;;;;;;;;;20.00;99.90;19.90;99351.00;;;;348452;27;88655;-88
2022/08/19 00:19:15;;;;;;;;;;;19.90;99.90;19.90;99358.00;;;;347497;28;82470;-89
2022/08/19 00:19:27;;;;;;;;;;;19.90;99.90;19.90;99358.00;;;;345635;28;91471;-88
2022/08/19 00:19:39;;;;;;;;;;;19.90;99.90;19.90;99359.00;;;;347330;28;83215;-88
2022/08/19 00:19:50;;;;;;;;;;;19.90;99.90;19.90;99355.00;;;;344085;28;92771;-89
2022/08/19 00:20:03;;;;;;;;;;;20.00;99.90;19.90;99362.00;;;;347498;28;82398;-89
2022/08/19 00:20:17;;;;;;;;;;;19.90;99.90;19.90;99352.00;;;;349857;27;90886;-88
2022/08/19 00:20:29;;;;;;;;;;;20.00;99.90;20.00;99357.00;;;;348621;27;83324;-88
2022/08/19 00:20:41;;;;;;;;;;;20.00;99.90;20.00;99356.00;;;;347030;28;89786;-88
2022/08/19 00:20:53;;;;;;;;;;;19.90;99.90;20.00;99358.00;;;;348809;27;83453;-89
2022/08/19 00:21:07;;;;;;;;;;;20.00;99.90;20.00;99355.00;;;;346954;28;91027;-88
2022/08/19 00:21:19;;;;;;;;;;;19.90;99.90;20.00;99362.00;;;;347459;28;83249;-89
2022/08/19 00:21:31;;;;;;;;;;;20.00;99.90;20.00;99363.00;;;;345652;28;91422;-89
2022/08/19 00:21:43;;;;;;;;;;;20.00;99.90;20.00;99357.00;;;;346109;28;83403;-88
2022/08/19 00:21:55;;;;;;;;;;;20.00;99.90;20.00;99352.00;;;;348293;27;92542;-88
2022/08/19 00:22:08;;;;;;;;;;;20.00;99.90;20.00;99352.00;;;;347438;28;83233;-88
2022/08/19 00:22:20;;;;;;;;;;;20.00;99.90;19.90;99354.00;;;;347119;28;87730;-89
2022/08/19 00:22:33;;;;;;;;;;;20.00;99.90;20.00;99362.00;;;;347175;28;83478;-89
2022/08/19 00:22:45;;;;;;;;;;;19.90;99.90;19.90;99364.00;;;;346910;28;91875;-89
2022/08/19 00:22:57;;;;;;;;;;;20.00;99.90;19.90;99361.00;;;;346088;28;83428;-88
2022/08/19 00:23:33;;;;;;;;;;;19.90;99.90;20.00;99365.00;;;;344282;28;90331;-88
2022/08/19 00:23:45;;;;;;;;;;;19.90;99.90;20.00;99358.00;;;;345980;28;83359;-89
2022/08/19 00:24:00;;;;;;;;;;;20.00;99.90;20.00;99363.00;;;;347086;28;88769;-89
2022/08/19 00:24:13;;;;;;;;;;;19.90;99.90;19.90;99365.00;;;;346117;28;82364;-89
2022/08/19 00:24:25;;;;;;;;;;;19.90;99.90;19.90;99363.00;;;;348163;27;92865;-89
2022/08/19 00:24:38;;;;;;;;;;;19.90;99.90;19.80;99360.00;;;;346073;28;83374;-89
2022/08/19 00:24:50;;;;;;;;;;;19.90;99.90;19.90;99358.00;;;;345787;28;89748;-89
2022/08/19 00:25:02;;;;;;;;;;;19.90;99.90;19.90;99361.00;;;;346004;28;83243;-89
2022/08/19 00:25:15;;;;;;;;;;;19.90;99.90;19.90;99357.00;;;;345626;28;90381;-89
2022/08/19 00:25:28;;;;;;;;;;;19.90;99.90;19.90;99364.00;;;;345930;28;83228;-89
2022/08/19 00:25:41;;;;;;;;;;;19.90;99.90;19.90;99360.00;;;;348402;27;92815;-89
2022/08/19 00:25:59;;;;;;;;;;;19.90;99.90;19.90;99369.00;;;;346201;28;82191;-89
2022/08/19 00:26:11;;;;;;;;;;;19.90;99.90;19.90;99363.00;;;;347157;28;90211;-89
2022/08/19 00:26:22;;;;;;;;;;;19.90;99.90;19.90;99364.00;;;;347339;27;83224;-89
2022/08/19 00:26:34;;;;;;;;;;;19.90;99.90;19.90;99362.00;;;;346694;28;89144;-89
2022/08/19 00:26:46;;;;;;;;;;;19.90;99.90;19.90;99365.00;;;;347433;28;83339;-89
2022/08/19 00:26:58;;;;;;;;;;;19.90;99.90;19.90;99366.00;;;;345672;28;91338;-89
2022/08/19 00:27:30;;;;;;;;;;;19.90;99.90;19.90;99368.00;;;;345963;28;83561;-89
2022/08/19 00:27:42;;;;;;;;;;;19.90;99.90;19.90;99372.00;;;;346942;28;91800;-89
2022/08/19 00:27:53;;;;;;;;;;;19.90;99.90;19.80;99367.00;;;;346132;28;83337;-89
2022/08/19 00:28:05;;;;;;;;;;;19.90;99.90;19.80;99360.00;;;;344296;28;89141;-89
2022/08/19 00:28:18;;;;;;;;;;;19.90;99.90;19.80;99359.00;;;;347362;28;83518;-89
2022/08/19 00:28:30;;;;;;;;;;;19.80;99.90;19.70;99366.00;;;;345535;28;89910;-89
2022/08/19 00:28:42;;;;;;;;;;;19.80;99.90;19.70;99358.00;;;;347419;28;82459;-89
2022/08/19 00:28:54;;;;;;;;;;;19.90;99.90;19.70;99362.00;;;;344193;28;91101;-89
2022/08/19 00:29:06;;;;;;;;;;;19.90;99.90;19.70;99369.00;;;;343161;28;82475;-89
2022/08/19 00:29:20;;;;;;;;;;;19.80;99.90;19.80;99357.00;;;;345667;28;87890;-89
2022/08/19 00:29:31;;;;;;;;;;;19.80;99.90;19.80;99355.00;;;;344674;28;83468;-89
2022/08/19 00:29:43;;;;;;;;;;;19.80;99.90;19.80;99362.00;;;;345563;28;91354;-88
2022/08/19 00:29:56;;;;;;;;;;;19.80;99.90;19.80;99364.00;;;;346008;28;83377;-89
2022/08/19 00:30:10;;;;;;;;;;;19.80;99.90;19.80;99362.00;;;;344283;28;91093;-89
2022/08/19 00:30:21;;;;;;;;;;;19.80;99.90;19.70;99361.00;;;;343291;28;83202;-89
2022/08/19 00:30:33;;;;;;;;;;;19.80;99.90;19.70;99363.00;;;;345498;28;91229;-89
2022/08/19 00:30:45;;;;;;;;;;;19.80;99.90;19.70;99360.00;;;;346077;28;82476;-89
2022/08/19 00:30:57;;;;;;;;;;;19.80;99.90;19.70;99362.00;;;;345520;28;92296;-89
2022/08/19 00:31:09;;;;;;;;;;;19.80;99.90;19.70;99361.00;;;;345864;28;83459;-88
2022/08/19 00:31:20;;;;;;;;;;;19.80;99.90;19.70;99364.00;;;;344304;28;89810;-89
2022/08/19 00:31:32;;;;;;;;;;;19.80;99.90;19.70;99362.00;;;;344596;28;83468;-90
2022/08/19 00:31:44;;;;;;;;;;;19.80;99.90;19.70;99362.00;;;;344198;28;91649;-89
2022/08/19 00:31:58;;;;;;;;;;;19.80;99.90;19.70;99365.00;;;;345964;28;82517;-89
2022/08/19 00:32:10;;;;;;;;;;;19.80;99.90;19.70;99359.00;;;;345668;28;91504;-89
2022/08/19 00:32:25;;;;;;;;;;;19.80;99.90;19.60;99357.00;;;;346046;28;83444;-88
2022/08/19 00:32:38;;;;;;;;;;;19.80;99.90;19.70;99363.00;;;;345470;28;92204;-88
2022/08/19 00:32:50;;;;;;;;;;;19.70;99.90;19.70;99353.00;;;;348735;27;83375;-89
2022/08/19 00:33:02;;;;;;;;;;;19.70;99.90;19.70;99357.00;;;;344087;28;92767;-89
2022/08/19 00:33:16;;;;;;;;;;;19.70;99.90;19.70;99362.00;;;;346067;28;82504;-89
2022/08/19 00:33:28;;;;;;;;;;;19.70;99.90;19.70;99367.00;;;;344276;28;90722;-89
2022/08/19 00:33:41;;;;;;;;;;;19.70;99.90;19.70;99357.00;;;;347553;28;82381;-89
2022/08/19 00:33:53;;;;;;;;;;;19.70;99.90;19.70;99358.00;;;;346949;28;91505;-89
2022/08/19 00:34:05;;;;;;;;;;;19.70;99.90;19.70;99358.00;;;;346021;28;83396;-89
2022/08/19 00:34:17;;;;;;;;;;;19.70;99.90;19.80;99351.00;;;;342943;28;91613;-89
2022/08/19 00:34:29;;;;;;;;;;;19.70;99.90;19.80;99358.00;;;;347436;28;82445;-89
2022/08/19 00:34:41;;;;;;;;;;;19.70;99.90;19.70;99348.00;;;;348346;27;91688;-89
2022/08/19 00:34:53;;;;;;;;;;;19.70;99.90;19.70;99359.00;;;;344955;28;82488;-89
2022/08/19 00:35:05;;;;;;;;;;;19.80;99.90;19.80;99356.00;;;;345790;28;91396;-89
2022/08/19 00:35:18;;;;;;;;;;;19.70;99.90;19.80;99354.00;;;;344953;28;82518;-88
2022/08/19 00:35:30;;;;;;;;;;;19.70;99.90;19.80;99362.00;;;;345896;28;90354;-89
2022/08/19 00:35:41;;;;;;;;;;;19.70;99.90;19.80;99352.00;;;;347650;28;83376;-89
2022/08/19 00:35:55;;;;;;;;;;;19.70;99.90;19.80;99355.00;;;;345846;28;90200;-89
2022/08/19 00:36:07;;;;;;;;;;;19.80;99.90;19.80;99361.00;;;;347740;28;82527;-89
2022/08/19 00:36:19;;;;;;;;;;;19.80;99.90;19.80;99356.00;;;;344460;28;90377;-89
2022/08/19 00:36:32;;;;;;;;;;;19.70;99.90;19.70;99354.00;;;;347589;27;83432;-89
2022/08/19 00:36:44;;;;;;;;;;;19.80;99.90;19.70;99358.00;;;;345890;28;91155;-89
2022/08/19 00:36:56;;;;;;;;;;;19.80;99.90;19.70;99352.00;;;;347708;28;82459;-89
2022/08/19 00:37:08;;;;;;;;;;;19.80;99.90;19.70;99352.00;;;;345689;28;91468;-90
2022/08/19 00:37:22;;;;;;;;;;;19.80;99.90;19.70;99356.00;;;;347633;28;83388;-89
2022/08/19 00:37:34;;;;;;;;;;;19.80;99.90;19.80;99349.00;;;;345871;28;90795;-89
2022/08/19 00:37:47;;;;;;;;;;;19.80;99.90;19.70;99355.00;;;;346233;28;82455;-90
2022/08/19 00:37:59;;;;;;;;;;;19.80;99.90;19.70;99349.00;;;;345790;28;90641;-89
2022/08/19 00:38:11;;;;;;;;;;;19.80;99.90;19.70;99351.00;;;;344872;28;83516;-89
2022/08/19 00:38:23;;;;;;;;;;;19.80;99.90;19.70;99350.00;;;;345882;28;90282;-89
2022/08/19 00:38:49;;;;;;;;;;;19.70;99.90;19.70;99352.00;;;;346339;28;83610;-89
2022/08/19 00:39:01;;;;;;;;;;;19.70;99.90;19.70;99357.00;;;;344071;28;90370;-89
2022/08/19 00:39:13;;;;;;;;;;;19.70;99.90;19.70;99347.00;;;;345011;28;82540;-90
2022/08/19 00:39:25;;;;;;;;;;;19.70;99.90;19.70;99352.00;;;;345903;28;91200;-89
2022/08/19 00:39:37;;;;;;;;;;;19.70;99.90;19.80;99354.00;;;;346286;28;83471;-89
2022/08/19 00:39:50;;;;;;;;;;;19.70;99.90;19.70;99353.00;;;;345733;28;91380;-89
2022/08/19 00:40:04;;;;;;;;;;;19.70;99.90;19.80;99350.00;;;;349109;27;82480;-89
2022/08/19 00:40:18;;;;;;;;;;;19.70;99.90;19.80;99355.00;;;;344556;28;90582;-89
2022/08/19 00:40:30;;;;;;;;;;;19.70;99.90;19.80;99360.00;;;;347644;28;83280;-90
2022/08/19 00:40:46;;;;;;;;;;;19.70;99.90;19.70;99347.00;;;;348624;27;90125;-89
2022/08/19 00:40:58;;;;;;;;;;;19.70;99.90;19.70;99347.00;;;;347636;28;83276;-89
2022/08/19 00:41:13;;;;;;;;;;;19.70;99.90;19.70;99352.00;;;;345737;28;91554;-89
2022/08/19 00:41:25;;;;;;;;;;;19.70;99.90;19.60;99353.00;;;;346328;28;83244;-89
2022/08/19 00:41:36;;;;;;;;;;;19.70;99.90;19.60;99344.00;;;;347174;28;92368;-89
2022/08/19 00:41:48;;;;;;;;;;;19.70;99.90;19.60;99361.00;;;;346193;28;82391;-89
2022/08/19 00:42:00;;;;;;;;;;;19.70;99.90;19.60;99353.00;;;;344463;28;91466;-89
2022/08/19 00:42:15;;;;;;;;;;;19.70;99.90;19.70;99351.00;;;;347667;28;83467;-89
2022/08/19 00:42:28;;;;;;;;;;;19.70;99.90;19.70;99351.00;;;;344454;28;90399;-89
2022/08/19 00:42:40;;;;;;;;;;;19.70;99.90;19.70;99352.00;;;;346254;28;82360;-89
2022/08/19 00:42:53;;;;;;;;;;;19.70;99.90;19.70;99353.00;;;;344483;28;91495;-89
2022/08/19 00:43:10;;;;;;;;;;;19.70;99.90;19.70;99349.00;;;;344892;28;82424;-89
2022/08/19 00:43:23;;;;;;;;;;;19.70;99.90;19.70;99350.00;;;;345881;28;88806;-89
2022/08/19 00:43:36;;;;;;;;;;;19.70;99.90;19.70;99354.00;;;;346299;28;83363;-89
2022/08/19 00:44:30;;;;;;;;;;;19.70;99.90;19.70;99357.00;;;;347120;28;91859;-89
2022/08/19 00:44:42;;;;;;;;;;;19.70;99.90;19.60;99353.00;;;;340620;28;83250;-89
2022/08/19 00:44:54;;;;;;;;;;;19.70;99.90;19.60;99347.00;;;;338922;28;91306;-89
2022/08/19 00:45:16;;;;;;;;;;;19.70;99.90;19.60;99353.00;;;;343329;28;83479;-89
2022/08/19 00:45:32;;;;;;;;;;;19.70;99.90;19.60;99355.00;;;;343062;28;91149;-89
2022/08/19 00:45:47;;;;;;;;;;;19.60;99.90;19.60;99353.00;;;;340722;28;84478;-89
2022/08/19 00:45:59;;;;;;;;;;;19.60;99.90;19.60;99347.00;;;;341675;28;91494;-89
2022/08/19 00:46:10;;;;;;;;;;;19.60;99.90;19.60;99349.00;;;;342188;28;82414;-89
2022/08/19 00:46:22;;;;;;;;;;;19.60;99.90;19.60;99352.00;;;;340374;28;90899;-89
2022/08/19 00:46:36;;;;;;;;;;;19.70;99.90;19.50;99346.00;;;;344737;28;83584;-89
2022/08/19 00:46:49;;;;;;;;;;;19.60;99.90;19.50;99347.00;;;;342981;28;92321;-89
2022/08/19 00:47:08;;;;;;;;;;;19.60;99.90;19.50;99347.00;;;;346159;28;83430;-89
2022/08/19 00:47:24;;;;;;;;;;;19.60;99.90;19.50;99349.00;;;;341748;28;89019;-89
2022/08/19 00:47:38;;;;;;;;;;;19.60;99.90;19.50;99350.00;;;;340679;28;83481;-89
2022/08/19 00:47:50;;;;;;;;;;;19.60;99.90;19.50;99354.00;;;;341641;28;91904;-89
2022/08/19 00:48:05;;;;;;;;;;;19.60;99.90;19.50;99345.00;;;;343525;28;82307;-89
2022/08/19 00:48:25;;;;;;;;;;;19.60;99.90;19.50;99351.00;;;;344441;28;90551;-89
2022/08/19 00:48:37;;;;;;;;;;;19.60;99.90;19.60;99345.00;;;;342135;28;82484;-89
2022/08/19 00:48:49;;;;;;;;;;;19.60;99.90;19.50;99346.00;;;;341673;28;90168;-90
2022/08/19 00:49:01;;;;;;;;;;;19.60;99.90;19.60;99339.00;;;;342210;28;82671;-89
2022/08/19 00:49:16;;;;;;;;;;;19.60;99.90;19.60;99347.00;;;;342959;28;92628;-90
2022/08/19 00:49:35;;;;;;;;;;;19.60;99.90;19.60;99342.00;;;;340794;28;83335;-89
2022/08/19 00:49:55;;;;;;;;;;;19.60;99.90;19.50;99345.00;;;;340361;28;91063;-89
2022/08/19 00:50:08;;;;;;;;;;;19.60;99.90;19.50;99344.00;;;;342056;28;83307;-90
2022/08/19 00:50:20;;;;;;;;;;;19.60;99.90;19.50;99343.00;;;;340344;28;90862;-90
2022/08/19 00:50:32;;;;;;;;;;;19.60;99.90;19.50;99338.00;;;;343396;28;83417;-89
2022/08/19 00:50:44;;;;;;;;;;;19.60;99.90;19.50;99345.00;;;;340521;28;90161;-89
2022/08/19 00:51:03;;;;;;;;;;;19.60;99.90;19.60;99341.00;;;;340745;28;83465;-90
2022/08/19 00:51:16;;;;;;;;;;;19.60;99.90;19.60;99341.00;;;;341473;28;90465;-90
2022/08/19 00:51:28;;;;;;;;;;;19.60;99.90;19.60;99331.00;;;;342150;28;82359;-89
2022/08/19 00:51:40;;;;;;;;;;;19.60;99.90;19.60;99334.00;;;;342977;28;91741;-89
2022/08/19 00:51:59;;;;;;;;;;;19.60;99.90;19.50;99333.00;;;;340733;28;83543;-90
2022/08/19 00:52:13;;;;;;;;;;;19.60;99.90;19.60;99342.00;;;;341719;28;91350;-89
2022/08/19 00:52:33;;;;;;;;;;;19.60;99.90;19.50;99343.00;;;;339294;28;82443;-89
2022/08/19 00:52:48;;;;;;;;;;;19.60;99.90;19.50;99337.00;;;;339046;28;91505;-90
2022/08/19 00:52:59;;;;;;;;;;;19.50;99.90;19.50;99336.00;;;;343460;28;83418;-90
2022/08/19 00:53:12;;;;;;;;;;;19.50;99.90;19.50;99339.00;;;;342934;28;91693;-90
2022/08/19 00:53:26;;;;;;;;;;;19.50;99.90;19.50;99332.00;;;;340840;28;83348;-89
2022/08/19 00:53:39;;;;;;;;;;;19.50;99.90;19.60;99336.00;;;;340414;28;91681;-89
2022/08/19 00:53:51;;;;;;;;;;;19.50;99.90;19.60;99333.00;;;;340521;28;83480;-89
2022/08/19 00:54:03;;;;;;;;;;;19.50;99.90;19.60;99338.00;;;;343007;28;92431;-89
2022/08/19 00:54:15;;;;;;;;;;;19.50;99.90;19.60;99344.00;;;;340802;28;83558;-89
2022/08/19 00:54:26;;;;;;;;;;;19.50;99.90;19.50;99338.00;;;;341553;28;91677;-89
2022/08/19 00:54:42;;;;;;;;;;;19.50;99.90;19.50;99332.00;;;;340795;28;83371;-89
2022/08/19 00:54:54;;;;;;;;;;;19.50;99.90;19.50;99335.00;;;;339108;28;87904;-89
2022/08/19 00:55:08;;;;;;;;;;;19.50;99.90;19.60;99342.00;;;;340752;28;83390;-89
2022/08/19 00:55:25;;;;;;;;;;;19.50;99.90;19.50;99339.00;;;;339005;28;91811;-89
2022/08/19 00:55:37;;;;;;;;;;;19.50;99.90;19.60;99334.00;;;;339479;28;82384;-89
2022/08/19 00:55:50;;;;;;;;;;;19.50;99.90;19.50;99333.00;;;;338876;28;91729;-89
2022/08/19 00:56:05;;;;;;;;;;;19.50;99.90;19.60;99332.00;;;;340731;28;83427;-89
2022/08/19 00:56:18;;;;;;;;;;;19.50;99.90;19.60;99336.00;;;;343045;28;90323;-89
2022/08/19 00:56:30;;;;;;;;;;;19.50;99.90;19.50;99343.00;;;;340679;28;83521;-89
2022/08/19 00:56:42;;;;;;;;;;;19.50;99.90;19.50;99333.00;;;;341733;28;91952;-90
2022/08/19 00:56:54;;;;;;;;;;;19.50;99.90;19.60;99344.00;;;;339005;28;82630;-89
2022/08/19 00:57:09;;;;;;;;;;;19.50;99.90;19.60;99339.00;;;;336056;28;90371;-88
2022/08/19 00:57:25;;;;;;;;;;;19.50;99.90;19.60;99336.00;;;;335238;29;82997;-89
2022/08/19 00:57:38;;;;;;;;;;;19.50;99.90;19.50;99337.00;;;;334939;29;91533;-89
2022/08/19 00:58:07;;;;;;;;;;;19.50;99.90;19.50;99341.00;;;;336447;28;83503;-89
2022/08/19 00:58:20;;;;;;;;;;;19.50;99.90;19.50;99334.00;;;;334959;29;90100;-89
2022/08/19 00:58:32;;;;;;;;;;;19.50;99.90;19.50;99339.00;;;;333960;29;82328;-89
2022/08/19 00:58:44;;;;;;;;;;;19.50;99.90;19.50;99338.00;;;;332378;29;88536;-90
2022/08/19 00:58:56;;;;;;;;;;;19.50;99.90;19.50;99333.00;;;;335258;29;84786;-88
2022/08/19 00:59:08;;;;;;;;;;;19.50;99.90;19.50;99342.00;;;;338914;28;91150;-89
2022/08/19 00:59:20;;;;;;;;;;;19.50;99.90;19.50;99331.00;;;;340769;28;83438;-89
2022/08/19 00:59:52;;;;;;;;;;;19.50;99.90;19.50;99340.00;;;;336198;28;90513;-89
2022/08/19 01:00:14;;;;;;;;;;;19.50;99.90;19.60;99337.00;;;;342211;28;82445;-90
2022/08/19 01:00:27;;;;;;;;;;;19.50;99.90;19.60;99330.00;;;;338837;28;88066;-89
2022/08/19 01:00:38;;;;;;;;;;;19.50;99.90;19.60;99337.00;;;;336613;28;82426;-89
2022/08/19 01:00:50;;;;;;;;;;;19.50;99.90;19.60;99333.00;;;;336166;28;91485;-89
2022/08/19 01:01:03;;;;;;;;;;;19.50;99.90;19.50;99335.00;;;;336446;28;82558;-89
2022/08/19 01:01:14;;;;;;;;;;;19.50;99.90;19.50;99333.00;;;;334760;29;92412;-90
2022/08/19 01:01:26;;;;;;;;;;;19.50;99.90;19.50;99327.00;;;;335255;29;83459;-89
2022/08/19 01:01:39;;;;;;;;;;;19.50;99.90;19.50;99326.00;;;;336194;28;91630;-89
2022/08/19 01:01:51;;;;;;;;;;;19.50;99.90;19.50;99327.00;;;;336469;28;83448;-89
2022/08/19 01:02:03;;;;;;;;;;;19.50;99.90;19.50;99328.00;;;;337426;28;91948;-90
2022/08/19 01:02:15;;;;;;;;;;;19.50;99.90;19.50;99326.00;;;;336561;28;83493;-89
2022/08/19 01:02:27;;;;;;;;;;;19.50;99.90;19.50;99324.00;;;;332110;29;91434;-89
2022/08/19 01:02:40;;;;;;;;;;;19.50;99.90;19.40;99325.00;;;;336614;28;82472;-89
2022/08/19 01:02:53;;;;;;;;;;;19.50;99.90;19.50;99330.00;;;;341702;28;91708;-89
2022/08/19 01:03:09;;;;;;;;;;;19.50;99.90;19.50;99330.00;;;;333876;28;83557;-89
2022/08/19 01:03:21;;;;;;;;;;;19.50;99.90;19.50;99326.00;;;;337449;28;92258;-89
2022/08/19 01:03:33;;;;;;;;;;;19.50;99.90;19.50;99330.00;;;;333888;29;83467;-89
2022/08/19 01:04:05;;;;;;;;;;;19.50;99.90;19.50;99328.00;;;;334835;29;91702;-89
2022/08/19 01:04:17;;;;;;;;;;;19.50;99.90;19.50;99322.00;;;;333987;29;82330;-89
2022/08/19 01:04:28;;;;;;;;;;;19.50;99.90;19.50;99329.00;;;;334720;28;91700;-89
2022/08/19 01:04:40;;;;;;;;;;;19.50;99.90;19.50;99319.00;;;;337716;28;84806;-89
2022/08/19 01:04:52;;;;;;;;;;;19.50;99.90;19.50;99320.00;;;;337497;28;91296;-89
2022/08/19 01:05:10;;;;;;;;;;;19.50;99.90;19.40;99317.00;;;;336598;28;82554;-89
2022/08/19 01:05:24;;;;;;;;;;;19.50;99.90;19.50;99319.00;;;;340365;28;91912;-89
2022/08/19 01:05:36;;;;;;;;;;;19.50;99.90;19.50;99314.00;;;;342085;28;83329;-89
2022/08/19 01:05:48;;;;;;;;;;;19.50;99.90;19.50;99318.00;;;;333461;29;92124;-89
2022/08/19 01:06:00;;;;;;;;;;;19.50;99.90;19.50;99319.00;;;;339468;28;82405;-89
2022/08/19 01:06:13;;;;;;;;;;;19.50;99.90;19.60;99319.00;;;;340341;28;92188;-89